Yuho Maru No.3 — JD2491 — position and weather

sailwx.info

Track history (hours):
 
Tides and Currents Weather Stations Pressure Air Temp Water Temp Dewpoint Dewpoint Depression Visibility Wind Speed Wind Dir Waves Ship Positions

Yuho Maru No.3

Last reported at 2017-Mar-27 01:07 UTC. Time now 2017-Mar-27 22:26 UTC.
Position N 35°31' E 139°56'.

Length 65 m; draft 3 m.

Type: Tanker. MMSI: 431000336.

Date/timePositionNaut miles runAvg speedWind from/ knotsBaromVisibWave heightAir tempDewpointWater temp
2017-Mar-27 01:07N 35°31' E 139°56'610.8
2017-Mar-27 00:34N 35°27' E 139°50'9 8.8
2017-Mar-26 23:34N 35°20' E 139°44'8 0.2
2017-Mar-25 05:28N 35°12' E 139°45'1011.2
2017-Mar-25 04:33N 35°21' E 139°42'10 9.9
2017-Mar-25 03:33N 35°31' E 139°46'0 0.0
2017-Mar-25 02:33N 35°31' E 139°46'0 0.0
2017-Mar-25 01:33N 35°31' E 139°46'0 0.0
2017-Mar-25 00:33N 35°31' E 139°46'0 0.0
2017-Mar-24 23:33N 35°31' E 139°46'3 3.0
2017-Mar-24 22:33N 35°30' E 139°50'0 0.1
2017-Mar-24 21:32N 35°30' E 139°50'0 0.0
2017-Mar-24 20:32N 35°30' E 139°50'0 0.0
2017-Mar-24 19:32N 35°30' E 139°50'0 0.0
2017-Mar-24 18:32N 35°30' E 139°50'0 0.0
2017-Mar-24 17:32N 35°30' E 139°50'0 0.0
2017-Mar-24 16:29N 35°30' E 139°50'0 0.1
2017-Mar-24 15:32N 35°30' E 139°50'0 0.0
2017-Mar-24 14:32N 35°30' E 139°50'0 0.0
2017-Mar-24 13:32N 35°30' E 139°50'0 0.0
2017-Mar-24 12:32N 35°30' E 139°50'0 0.0
2017-Mar-24 11:32N 35°30' E 139°50'0 0.0
2017-Mar-24 10:32N 35°30' E 139°50'0 0.0
2017-Mar-24 09:32N 35°30' E 139°50'2 1.8
2017-Mar-24 08:33N 35°31' E 139°51'9 2.3
2017-Mar-24 04:27N 35°39' E 139°58'7 5.6
2017-Mar-24 03:16N 35°34' E 139°54'7 9.6
2017-Mar-24 02:33N 35°31' E 139°46'1 0.2
2017-Mar-24 00:25N 35°31' E 139°46'0 0.1
2017-Mar-23 23:33N 35°31' E 139°46'3 2.8
2017-Mar-23 22:33N 35°29' E 139°48'0 0.0
2017-Mar-23 21:33N 35°29' E 139°48'0 0.0
2017-Mar-23 20:33N 35°29' E 139°48'0 0.0
2017-Mar-23 19:33N 35°29' E 139°48'0 0.0
2017-Mar-23 18:33N 35°29' E 139°48'0 0.0
2017-Mar-23 17:33N 35°29' E 139°48'0 0.0
2017-Mar-23 16:33N 35°29' E 139°48'0 0.1
2017-Mar-23 15:33N 35°29' E 139°48'0 0.0
2017-Mar-23 14:33N 35°29' E 139°48'0 0.0
2017-Mar-23 13:33N 35°29' E 139°48'0 0.1
2017-Mar-23 12:33N 35°29' E 139°49'0 0.0
2017-Mar-23 11:33N 35°29' E 139°49'0 0.0
2017-Mar-23 10:33N 35°29' E 139°49'0 0.1
2017-Mar-23 09:33N 35°29' E 139°48'7 6.9
2017-Mar-23 08:33N 35°24' E 139°42'2 1.8
2017-Mar-23 07:25N 35°23' E 139°41'0 0.0
2017-Mar-23 06:31N 35°23' E 139°41'0 0.0
2017-Mar-23 05:31N 35°23' E 139°41'0 0.0
2017-Mar-23 04:33N 35°22' E 139°41'1 0.8
2017-Mar-23 03:33N 35°22' E 139°41'0 0.1
2017-Mar-23 02:31N 35°22' E 139°40'0 0.0
2017-Mar-23 01:31N 35°22' E 139°40'0 0.0
2017-Mar-23 00:31N 35°22' E 139°40'5 5.6
2017-Mar-22 23:34N 35°26' E 139°45'1212.4
2017-Mar-22 22:33N 35°32' E 139°58'4 0.2
2017-Mar-21 21:31N 35°36' E 139°56'1 0.8
2017-Mar-21 20:32N 35°36' E 139°55'0 0.0
2017-Mar-21 19:33N 35°36' E 139°55'0 0.0
2017-Mar-21 18:33N 35°36' E 139°55'0 0.0
2017-Mar-21 17:33N 35°36' E 139°55'0 0.1
2017-Mar-21 16:33N 35°36' E 139°55'0 0.1
2017-Mar-21 15:33N 35°36' E 139°55'0 0.0
2017-Mar-21 14:31N 35°36' E 139°55'0 0.0
2017-Mar-21 13:30N 35°36' E 139°55'0 0.0
2017-Mar-21 12:33N 35°36' E 139°55'0 0.0
2017-Mar-21 11:29N 35°36' E 139°55'0 0.0
2017-Mar-21 10:32N 35°36' E 139°55'0 0.0
2017-Mar-21 09:17N 35°36' E 139°55'4 1.0
2017-Mar-21 05:22N 35°33' E 139°57'5 1.0
2017-Mar-21 00:18N 35°28' E 140°00'4 3.9
2017-Mar-20 23:14N 35°29' E 139°55'0 0.0
2017-Mar-20 22:23N 35°29' E 139°55'0 0.0
2017-Mar-20 21:33N 35°29' E 139°55'0 0.1
2017-Mar-20 20:33N 35°29' E 139°55'1 0.9
2017-Mar-20 19:30N 35°29' E 139°54'1011.2
2017-Mar-20 18:33N 35°21' E 139°45'1111.4
2017-Mar-20 17:33N 35°10' E 139°46'1212.0
2017-Mar-20 16:33N 35°01' E 139°37'  
Track history (hours):
 
Tides and Currents Weather Stations Pressure Air Temp Water Temp Dewpoint Dewpoint Depression Visibility Wind Speed Wind Dir Waves Ship Positions

Yuho Maru No.3

Last reported at 2017-Mar-27 01:07 UTC. Time now 2017-Mar-27 22:26 UTC.
Position N 35°31' E 139°56'.

Length 65 m; draft 3 m.

Type: Tanker. MMSI: 431000336.

Date/timePositionNaut miles runAvg speedWind from/ knotsBaromVisibWave heightAir tempDewpointWater temp
2017-Mar-27 01:07N 35°31' E 139°56'610.8
2017-Mar-27 00:34N 35°27' E 139°50'9 8.8
2017-Mar-26 23:34N 35°20' E 139°44'8 0.2
2017-Mar-25 05:28N 35°12' E 139°45'1011.2
2017-Mar-25 04:33N 35°21' E 139°42'10 9.9
2017-Mar-25 03:33N 35°31' E 139°46'0 0.0
2017-Mar-25 02:33N 35°31' E 139°46'0 0.0
2017-Mar-25 01:33N 35°31' E 139°46'0 0.0
2017-Mar-25 00:33N 35°31' E 139°46'0 0.0
2017-Mar-24 23:33N 35°31' E 139°46'3 3.0
2017-Mar-24 22:33N 35°30' E 139°50'0 0.1
2017-Mar-24 21:32N 35°30' E 139°50'0 0.0
2017-Mar-24 20:32N 35°30' E 139°50'0 0.0
2017-Mar-24 19:32N 35°30' E 139°50'0 0.0
2017-Mar-24 18:32N 35°30' E 139°50'0 0.0
2017-Mar-24 17:32N 35°30' E 139°50'0 0.0
2017-Mar-24 16:29N 35°30' E 139°50'0 0.1
2017-Mar-24 15:32N 35°30' E 139°50'0 0.0
2017-Mar-24 14:32N 35°30' E 139°50'0 0.0
2017-Mar-24 13:32N 35°30' E 139°50'0 0.0
2017-Mar-24 12:32N 35°30' E 139°50'0 0.0
2017-Mar-24 11:32N 35°30' E 139°50'0 0.0
2017-Mar-24 10:32N 35°30' E 139°50'0 0.0
2017-Mar-24 09:32N 35°30' E 139°50'2 1.8
2017-Mar-24 08:33N 35°31' E 139°51'9 2.3
2017-Mar-24 04:27N 35°39' E 139°58'7 5.6
2017-Mar-24 03:16N 35°34' E 139°54'7 9.6
2017-Mar-24 02:33N 35°31' E 139°46'1 0.2
2017-Mar-24 00:25N 35°31' E 139°46'0 0.1
2017-Mar-23 23:33N 35°31' E 139°46'3 2.8
2017-Mar-23 22:33N 35°29' E 139°48'0 0.0
2017-Mar-23 21:33N 35°29' E 139°48'0 0.0
2017-Mar-23 20:33N 35°29' E 139°48'0 0.0
2017-Mar-23 19:33N 35°29' E 139°48'0 0.0
2017-Mar-23 18:33N 35°29' E 139°48'0 0.0
2017-Mar-23 17:33N 35°29' E 139°48'0 0.0
2017-Mar-23 16:33N 35°29' E 139°48'0 0.1
2017-Mar-23 15:33N 35°29' E 139°48'0 0.0
2017-Mar-23 14:33N 35°29' E 139°48'0 0.0
2017-Mar-23 13:33N 35°29' E 139°48'0 0.1
2017-Mar-23 12:33N 35°29' E 139°49'0 0.0
2017-Mar-23 11:33N 35°29' E 139°49'0 0.0
2017-Mar-23 10:33N 35°29' E 139°49'0 0.1
2017-Mar-23 09:33N 35°29' E 139°48'7 6.9
2017-Mar-23 08:33N 35°24' E 139°42'2 1.8
2017-Mar-23 07:25N 35°23' E 139°41'0 0.0
2017-Mar-23 06:31N 35°23' E 139°41'0 0.0
2017-Mar-23 05:31N 35°23' E 139°41'0 0.0
2017-Mar-23 04:33N 35°22' E 139°41'1 0.8
2017-Mar-23 03:33N 35°22' E 139°41'0 0.1
2017-Mar-23 02:31N 35°22' E 139°40'0 0.0
2017-Mar-23 01:31N 35°22' E 139°40'0 0.0
2017-Mar-23 00:31N 35°22' E 139°40'5 5.6
2017-Mar-22 23:34N 35°26' E 139°45'1212.4
2017-Mar-22 22:33N 35°32' E 139°58'4 0.2
2017-Mar-21 21:31N 35°36' E 139°56'1 0.8
2017-Mar-21 20:32N 35°36' E 139°55'0 0.0
2017-Mar-21 19:33N 35°36' E 139°55'0 0.0
2017-Mar-21 18:33N 35°36' E 139°55'0 0.0
2017-Mar-21 17:33N 35°36' E 139°55'0 0.1
2017-Mar-21 16:33N 35°36' E 139°55'0 0.1
2017-Mar-21 15:33N 35°36' E 139°55'0 0.0
2017-Mar-21 14:31N 35°36' E 139°55'0 0.0
2017-Mar-21 13:30N 35°36' E 139°55'0 0.0
2017-Mar-21 12:33N 35°36' E 139°55'0 0.0
2017-Mar-21 11:29N 35°36' E 139°55'0 0.0
2017-Mar-21 10:32N 35°36' E 139°55'0 0.0
2017-Mar-21 09:17N 35°36' E 139°55'4 1.0
2017-Mar-21 05:22N 35°33' E 139°57'5 1.0
2017-Mar-21 00:18N 35°28' E 140°00'4 3.9
2017-Mar-20 23:14N 35°29' E 139°55'0 0.0
2017-Mar-20 22:23N 35°29' E 139°55'0 0.0
2017-Mar-20 21:33N 35°29' E 139°55'0 0.1
2017-Mar-20 20:33N 35°29' E 139°55'1 0.9
2017-Mar-20 19:30N 35°29' E 139°54'1011.2
2017-Mar-20 18:33N 35°21' E 139°45'1111.4
2017-Mar-20 17:33N 35°10' E 139°46'1212.0
2017-Mar-20 16:33N 35°01' E 139°37'  

Dump ship's entire track history